Flight Track Log - Related Links

Times and Time Zones

All times are in EDT time to prevent confusion due to time zone crossing. See the EJA677P flight status page for this flight to view local times or setup timezone preferences in your user account.

Time Position Orientation Groundspeed Altitude Reporting Facility
EDT Latitude Longitude Course Direction KTS km/h feet Rate Location/Type
Sun 08:48:58 40.8333 -74.1000 157° South 179 332 1.600  Level New York TRACON
Sun 08:49:52 40.8000 -74.1667 237° Southwest 201 372 4.300 2.421 Climbing New York TRACON
Sun 08:50:52 40.7500 -74.1833 194° South 225 417 6.200 2.505 Climbing New York TRACON
Sun 08:53:06 40.6019 -74.2533 200° South 261 483 12.400 2.719 Climbing New York Center
Sun 08:54:00 40.4216 -74.2083 157° South  Level FlightAware Approximate
Sun 08:54:04 40.5436 -74.3214 222° Southwest 267 494 14.900  Level New York Center
Sun 08:55:06 40.4661 -74.2656 151° Southeast 244 452 16.900 1.033 Climbing New York Center
Sun 08:56:06 40.4125 -74.1811 130° Southeast 258 478 17.000 102 Climbing New York Center
Sun 08:57:04 40.3442 -74.0906 135° Southeast 306 566 17.100 900 Climbing New York Center
Sun 08:58:06 40.2725 -74.1142 194° South 260 481 18.800 2.275 Climbing New York Center
Sun 09:00:35 40.0558 -74.2497 206° Southwest 326 604 25.100 2.526 Climbing Washington Center
Sun 09:01:35 39.9861 -74.3322 222° Southwest 343 636 27.600 2.500 Climbing Washington Center
Sun 09:02:35 39.9161 -74.4094 220° Southwest 343 636 30.100 2.150 Climbing Washington Center
Sun 09:03:35 39.8458 -74.4889 221° Southwest 343 636 31.900 1.200 Climbing Washington Center
Sun 09:04:35 39.7717 -74.5792 223° Southwest 352 652 32.500 1.050 Climbing Washington Center
Sun 09:05:35 39.6953 -74.6692 222° Southwest 367 679 34.000 1.500 Climbing Washington Center
Sun 09:06:35 39.6317 -74.7778 233° Southwest 372 689 35.500 1.500 Climbing Washington Center
Sun 09:07:35 39.5739 -74.8833 235° Southwest 377 698 37.000 1.400 Climbing Washington Center
Sun 09:08:35 39.5056 -74.9433 214° Southwest 372 689 38.300 1.250 Climbing Washington Center
Sun 09:09:35 39.4119 -75.0114 209° Southwest 358 663 39.500 843 Climbing Washington Center
Sun 09:10:36 39.3206 -75.0711 207° Southwest 358 663 40.000 250 Climbing Washington Center
Sun 09:11:35 39.2314 -75.1308 207° Southwest 369 684 40.000  Level Washington Center
Sun 09:12:35 39.1419 -75.1903 207° Southwest 369 684 40.000  Level Washington Center
Sun 09:13:35 39.0544 -75.2494 208° Southwest 364 674 40.000  Level Washington Center
Sun 09:14:35 38.9672 -75.3086 208° Southwest 364 674 40.000  Level Washington Center
Sun 09:15:35 38.8797 -75.3650 207° Southwest 359 665 40.000  Level Washington Center
Sun 09:16:35 38.7922 -75.4211 207° Southwest 359 665 40.000  Level Washington Center
Sun 09:17:35 38.7069 -75.4772 207° Southwest 359 665 40.000  Level Washington Center
Sun 09:18:35 38.6194 -75.5358 208° Southwest 359 665 40.000  Level Washington Center
Sun 09:19:35 38.5339 -75.5917 207° Southwest 354 655 40.000  Level Washington Center
Sun 09:20:35 38.4464 -75.6553 210° Southwest 354 655 40.000  Level Washington Center
Sun 09:21:35 38.3567 -75.7056 204° Southwest 354 655 40.000  Level Washington Center
Sun 09:22:35 38.2586 -75.7689 207° Southwest 359 665 40.000  Level Washington Center
Sun 09:23:35 38.1728 -75.8242 207° Southwest 359 665 40.000  Level Washington Center
Sun 09:24:35 38.0853 -75.8794 206° Southwest 359 665 40.000  Level Washington Center
Sun 09:25:35 37.9975 -75.9369 207° Southwest 359 665 40.000  Level Washington Center
Sun 09:26:35 37.9056 -75.9919 205° Southwest 359 665 40.000  Level Washington Center
Sun 09:27:35 37.8197 -76.0492 208° Southwest 359 665 40.000  Level Washington Center
Sun 09:28:35 37.7319 -76.1117 209° Southwest 359 665 40.000  Level Washington Center
Sun 09:29:35 37.6422 -76.1608 203° Southwest 359 665 40.000  Level Washington Center
Sun 09:30:35 37.5522 -76.2206 208° Southwest 359 665 40.000  Level Washington Center
Sun 09:31:35 37.4622 -76.2747 206° Southwest 359 665 40.000  Level Washington Center
Sun 09:32:35 37.3742 -76.3314 207° Southwest 359 665 40.000  Level Washington Center
Sun 09:33:35 37.2842 -76.3881 207° Southwest 359 665 40.000  Level Washington Center
Sun 09:34:35 37.1942 -76.4444 207° Southwest 359 665 40.000  Level Washington Center
Sun 09:35:35 37.1061 -76.5008 207° Southwest 359 665 40.000  Level Washington Center
Sun 09:36:35 37.0181 -76.5544 206° Southwest 359 665 40.000  Level Washington Center
Sun 09:37:35 36.9278 -76.6131 207° Southwest 359 665 40.000  Level Washington Center
Sun 09:38:35 36.8397 -76.6689 207° Southwest 359 665 40.000  Level Washington Center
Sun 09:39:35 36.7494 -76.7222 205° Southwest 359 665 40.000  Level Washington Center
Sun 09:40:35 36.6592 -76.7803 207° Southwest 359 665 40.000  Level Washington Center
Sun 09:41:35 36.5731 -76.8308 205° Southwest 359 665 40.000  Level Washington Center
Sun 09:42:35 36.4828 -76.8861 206° Southwest 364 674 40.000  Level Washington Center
Sun 09:43:35 36.3925 -76.9414 206° Southwest 359 665 40.000  Level Washington Center
Sun 09:44:35 36.3042 -76.9967 207° Southwest 359 665 40.000  Level Washington Center
Sun 09:45:35 36.2161 -77.0517 207° Southwest 359 665 40.000  Level Washington Center
Sun 09:46:35 36.1278 -77.1042 206° Southwest 359 665 40.000  Level Washington Center
Sun 09:47:35 36.0436 -77.1564 207° Southwest 352 652 40.000  Level Washington Center
Sun 09:48:35 35.9675 -77.2242 216° Southwest 346 641 40.000  Level Washington Center
Sun 09:49:35 35.8914 -77.2997 219° Southwest 346 641 40.000  Level Washington Center
Sun 09:50:35 35.8153 -77.3722 218° Southwest 352 652 40.000  Level Washington Center
Sun 09:51:35 35.7369 -77.4447 217° Southwest 352 652 40.000  Level Washington Center
Sun 09:52:35 35.6586 -77.5194 218° Southwest 352 652 40.000  Level Washington Center
Sun 09:53:35 35.5822 -77.5917 218° Southwest 352 652 40.000  Level Washington Center
Sun 09:54:36 35.5039 -77.6664 218° Southwest 352 652 40.000  Level Washington Center
Sun 09:55:35 35.4294 -77.7358 217° Southwest 352 652 40.000  Level Washington Center
Sun 09:56:35 35.3489 -77.8100 217° Southwest 352 652 40.000  Level Washington Center
Sun 09:57:35 35.2725 -77.8817 217° Southwest 352 652 40.000  Level Washington Center
Sun 09:58:35 35.1958 -77.9533 217° Southwest 352 652 40.000  Level Washington Center
Sun 09:59:35 35.1194 -78.0247 217° Southwest 347 642 40.000  Level Washington Center
Sun 10:00:35 35.0406 -78.0983 217° Southwest 347 642 40.000  Level Washington Center
Sun 10:01:35 34.9619 -78.1719 218° Southwest 352 652 40.000  Level Washington Center
Sun 10:04:51 34.7122 -78.4122 218° Southwest 363 673 40.000  Level Jacksonville Center
Sun 10:05:51 34.6372 -78.4717 213° Southwest 363 673 40.000  Level Jacksonville Center
Sun 10:06:51 34.5583 -78.5439 217° Southwest 363 673 40.000  Level Jacksonville Center
Sun 10:07:51 34.4817 -78.6208 220° Southwest 363 673 40.000  Level Jacksonville Center
Sun 10:08:51 34.4008 -78.6953 217° Southwest 363 673 40.000  Level Jacksonville Center
Sun 10:09:51 34.3219 -78.7694 218° Southwest 363 673 40.000  Level Jacksonville Center
Sun 10:10:51 34.2428 -78.8408 217° Southwest 363 673 40.000  Level Jacksonville Center
Sun 10:11:51 34.1617 -78.9100 215° Southwest 363 673 40.000  Level Jacksonville Center
Sun 10:12:51 34.0825 -78.9839 218° Southwest 363 673 40.000  Level Jacksonville Center
Sun 10:13:51 34.0014 -79.0550 216° Southwest 363 673 40.000  Level Jacksonville Center
Sun 10:14:51 33.9222 -79.1286 218° Southwest 363 673 40.000  Level Jacksonville Center
Sun 10:15:51 33.8386 -79.1997 215° Southwest 369 684 40.000  Level Jacksonville Center
Sun 10:16:51 33.7594 -79.2731 218° Southwest 369 684 40.000  Level Jacksonville Center
Sun 10:17:51 33.6761 -79.3461 216° Southwest 360 666 40.000  Level Jacksonville Center
Sun 10:18:51 33.5944 -79.4192 217° Southwest 360 666 40.000  Level Jacksonville Center
Sun 10:19:51 33.5131 -79.4922 217° Southwest 365 676 40.000  Level Jacksonville Center
Sun 10:20:51 33.4317 -79.5650 217° Southwest 365 676 40.000  Level Jacksonville Center
Sun 10:21:51 33.3500 -79.6353 216° Southwest 371 687 40.000  Level Jacksonville Center
Sun 10:22:51 33.2683 -79.7103 218° Southwest 371 687 40.000  Level Jacksonville Center
Sun 10:23:51 33.1842 -79.7728 212° Southwest 371 687 40.000  Level Jacksonville Center
Sun 10:24:51 33.0894 -79.8233 204° Southwest 371 687 40.000  Level Jacksonville Center
Sun 10:25:51 32.9947 -79.8758 205° Southwest 376 697 40.000  Level Jacksonville Center
Sun 10:26:51 32.9000 -79.9311 206° Southwest 376 697 40.000  Level Jacksonville Center
Sun 10:27:51 32.8072 -79.9811 204° Southwest 376 697 40.000  Level Jacksonville Center
Sun 10:28:51 32.7103 -80.0336 204° Southwest 376 697 40.000  Level Jacksonville Center
Sun 10:29:51 32.6178 -80.0858 205° Southwest 376 697 40.000  Level Jacksonville Center
Sun 10:30:51 32.5228 -80.1381 205° Southwest 376 697 40.000  Level Jacksonville Center
Sun 10:31:51 32.4278 -80.1903 205° Southwest 381 705 40.000  Level Jacksonville Center
Sun 10:32:51 32.3350 -80.2444 206° Southwest 381 705 40.000  Level Jacksonville Center
Sun 10:33:51 32.2403 -80.2964 205° Southwest 381 705 40.000 -450 Level Jacksonville Center
Sun 10:34:51 32.1472 -80.3456 204° Southwest 381 705 39.100 -950 Descending Jacksonville Center
Sun 10:35:51 32.0500 -80.3975 204° Southwest 380 703 38.100 -550 Descending Jacksonville Center
Sun 10:36:51 31.9697 -80.4436 206° Southwest 375 695 38.000 -550 Descending Jacksonville Center
Sun 10:37:51 31.8622 -80.5003 204° Southwest 383 710 37.000 -950 Descending Jacksonville Center
Sun 10:38:51 31.7631 -80.5567 206° Southwest 400 740 36.100 -500 Descending Jacksonville Center
Sun 10:39:51 31.6761 -80.6028 204° Southwest 395 732 36.000 -50 Descending Jacksonville Center
Sun 10:40:51 31.5706 -80.6589 204° Southwest 390 723 36.000  Level Jacksonville Center
Sun 10:41:51 31.4756 -80.7075 204° Southwest 380 703 36.000 -450 Level Jacksonville Center
Sun 10:42:51 31.3825 -80.7608 206° Southwest 380 703 35.100 -1.000 Descending Jacksonville Center
Sun 10:43:51 31.2853 -80.8142 205° Southwest 385 713 34.000 -1.050 Descending Jacksonville Center
Sun 10:44:51 31.1836 -80.8672 204° Southwest 396 734 33.000 -1.000 Descending Jacksonville Center
Sun 10:45:51 31.0822 -80.9206 204° Southwest 396 734 32.000 -1.050 Descending Jacksonville Center
Sun 10:46:51 30.9808 -80.9736 204° Southwest 396 734 30.900 -1.050 Descending Jacksonville Center
Sun 10:47:51 30.8856 -81.0239 204° Southwest 396 734 29.900 -1.050 Descending Jacksonville Center
Sun 10:48:51 30.7881 -81.0764 205° Southwest 396 734 28.800 -1.150 Descending Jacksonville Center
Sun 10:49:51 30.6864 -81.1267 203° Southwest 396 734 27.600 -1.300 Descending Jacksonville Center
Sun 10:50:51 30.5783 -81.1528 192° South 396 734 26.200 -1.350 Descending Jacksonville Center
Sun 10:51:51 30.4614 -81.1503 179° South 403 747 24.900 -1.100 Descending Jacksonville Center
Sun 10:52:51 30.3464 -81.1450 178° South 409 758 24.000 -450 Descending Jacksonville Center
Sun 10:53:51 30.2378 -81.1422 179° South 403 747 24.000 -800 Level Jacksonville Center
Sun 10:54:51 30.1356 -81.1392 179° South 395 732 22.400 -1.750 Descending Jacksonville Center
Sun 10:55:51 30.0311 -81.1436 182° South 381 705 20.500 -1.190 Descending Jacksonville Center
Sun 10:56:52 29.9292 -81.1622 189° South 381 705 20.000 -400 Descending Jacksonville Center
Sun 10:57:51 29.8269 -81.1808 189° South 376 697 19.700 -908 Descending Jacksonville Center
Sun 10:58:51 29.7206 -81.1778 179° South 376 697 18.200 -1.500 Descending Jacksonville Center
Sun 10:59:51 29.6222 -81.1558 169° South 376 697 16.700 -1.800 Descending Jacksonville Center
Sun 11:00:51 29.5281 -81.1478 176° South 365 676 14.600 -2.200 Descending Jacksonville Center
Sun 11:01:51 29.4339 -81.1303 171° South 349 647 12.300 -2.450 Descending Jacksonville Center
Sun 11:02:51 29.3503 -81.1200 174° South 332 615 9.700 -3.000 Descending Jacksonville Center
Sun 11:03:51 29.2733 -81.1381 192° South 289 536 6.300 -2.850 Descending Jacksonville Center
Sun 11:04:51 29.2133 -81.1892 217° Southwest 275 509 4.000 -2.129 Descending Jacksonville Center
Sun 11:05:55 29.1872 -81.2656 249° West 224 415 1.900 4.000 Descending Jacksonville Center
Sun 11:06:51 29.1247 -81.2786 190° South 242 447 12.000 5.224 Climbing Jacksonville Center
Sun 11:07:51 29.0731 -81.3197 215° Southwest 242 447 12.000  Level Jacksonville Center
Sun 11:08:51 29.0214 -81.3633 216° Southwest 242 447 12.000 -4.701 Level Jacksonville Center
Sun 11:10:05 29.1381 -81.1619 56° Northeast 162 299 1.500 -5.116 Descending Jacksonville Center
Sun 11:11:00 29.1519 -81.1261 66° East 135 249 1.000 -569 Descending Jacksonville Center
Sun 11:12:01 29.1661 -81.0900 66° East 107 198 400 -590 Descending Jacksonville Center

Login

Don't have an account? Register now (free) for customized features, flight alerts, and more!